Aviation Digital Data Service (ADDS)

Output produced by METARs form (1551 UTC 04 August 2015)
found at http://aviationweather.gov/adds/metars/
 
KERI 041339Z 0414/0512 23006KT P6SM BKN025 
     FM041500 26010KT P6SM SCT045 
     FM050000 26008KT P6SM VCSH OVC100